createdAt,value
2023-01-19T00:00:55.853Z,35.63
2023-01-19T00:03:23.026Z,35.00
2023-01-19T00:05:50.299Z,34.83
2023-01-19T00:08:18.378Z,35.43
2023-01-19T00:10:48.223Z,39.90
2023-01-19T00:13:15.842Z,35.97
2023-01-19T00:15:44.065Z,37.27
2023-01-19T00:18:11.680Z,34.97
2023-01-19T00:20:40.088Z,33.43
2023-01-19T00:23:08.445Z,36.07
2023-01-19T00:25:42.878Z,35.00
2023-01-19T00:28:14.778Z,35.23
2023-01-19T00:30:42.540Z,36.77
2023-01-19T00:33:10.895Z,36.13
2023-01-19T00:35:38.079Z,34.93
2023-01-19T00:38:05.411Z,36.50
2023-01-19T00:40:32.683Z,36.73
2023-01-19T00:43:00.868Z,43.43
2023-01-19T00:45:28.285Z,47.30
2023-01-19T00:47:57.494Z,81.80
2023-01-19T00:50:26.572Z,93.37
2023-01-19T00:52:55.486Z,59.87
2023-01-19T00:55:23.455Z,48.57
2023-01-19T00:57:50.949Z,53.03
2023-01-19T01:00:20.111Z,51.17
2023-01-19T01:02:49.090Z,51.27
2023-01-19T01:05:17.318Z,49.70
2023-01-19T01:07:45.628Z,46.30
2023-01-19T01:10:21.793Z,54.00
2023-01-19T01:12:56.427Z,51.60
2023-01-19T01:15:26.838Z,58.60
2023-01-19T01:17:54.478Z,54.37
2023-01-19T01:20:25.533Z,54.47
2023-01-19T01:22:54.904Z,54.17
2023-01-19T01:25:24.332Z,65.27
2023-01-19T01:27:52.380Z,58.60
2023-01-19T01:30:21.022Z,52.13
2023-01-19T01:32:48.588Z,54.53
2023-01-19T01:35:16.457Z,50.57
2023-01-19T01:37:43.865Z,54.60
2023-01-19T01:40:17.430Z,49.63
2023-01-19T01:42:45.713Z,50.87
2023-01-19T01:45:36.238Z,53.73
2023-01-19T01:48:15.402Z,61.87
2023-01-19T01:51:15.390Z,81.50
2023-01-19T01:53:45.637Z,56.13
2023-01-19T01:56:20.236Z,56.97
2023-01-19T01:58:48.241Z,62.50
2023-01-19T02:01:34.243Z,63.67
2023-01-19T02:04:01.650Z,90.23
2023-01-19T02:06:29.738Z,63.70
2023-01-19T02:09:29.193Z,61.33
2023-01-19T02:12:15.713Z,65.47
2023-01-19T02:14:42.973Z,63.33
2023-01-19T02:17:10.227Z,67.50
2023-01-19T02:19:44.228Z,64.13
2023-01-19T02:22:14.153Z,64.63
2023-01-19T02:24:41.795Z,52.63
2023-01-19T02:27:10.387Z,50.27
2023-01-19T02:29:37.719Z,50.93
2023-01-19T02:32:06.002Z,54.37
2023-01-19T02:34:33.380Z,52.10
2023-01-19T02:37:06.942Z,53.33
2023-01-19T02:39:50.920Z,56.67
2023-01-19T02:42:25.716Z,55.83
2023-01-19T02:44:57.914Z,54.47
2023-01-19T02:47:25.272Z,53.83
2023-01-19T02:50:00.551Z,55.13
2023-01-19T02:52:28.545Z,53.20
2023-01-19T02:55:16.112Z,53.77
2023-01-19T02:58:05.851Z,48.33
2023-01-19T03:01:02.147Z,52.83
2023-01-19T03:03:38.154Z,54.17
2023-01-19T03:06:17.587Z,52.67
2023-01-19T03:08:53.094Z,51.80
2023-01-19T03:11:20.863Z,51.07
2023-01-19T03:14:01.973Z,49.30
2023-01-19T03:17:03.589Z,49.13
2023-01-19T03:19:37.939Z,52.03
2023-01-19T03:22:13.598Z,49.90
2023-01-19T03:24:43.657Z,50.53
2023-01-19T03:27:40.925Z,50.00
2023-01-19T03:30:18.968Z,51.67
2023-01-19T03:32:52.972Z,53.30
2023-01-19T03:35:23.963Z,50.27
2023-01-19T03:37:55.200Z,52.67
2023-01-19T03:40:23.685Z,51.90
2023-01-19T03:42:51.466Z,52.13
2023-01-19T03:45:19.421Z,51.40
2023-01-19T03:47:46.762Z,50.73
2023-01-19T03:50:24.859Z,53.67
2023-01-19T03:53:18.739Z,57.73
2023-01-19T03:55:48.785Z,59.83
2023-01-19T03:58:15.954Z,58.00
2023-01-19T04:00:43.478Z,65.50
2023-01-19T04:03:17.834Z,69.67
2023-01-19T04:05:46.326Z,69.83
2023-01-19T04:08:13.675Z,66.67
2023-01-19T04:10:40.858Z,65.33
2023-01-19T04:13:08.145Z,60.63
2023-01-19T04:15:35.515Z,60.33
2023-01-19T04:18:02.746Z,62.93
2023-01-19T04:20:30.136Z,61.23
2023-01-19T04:23:01.439Z,64.07
2023-01-19T04:25:29.462Z,66.90
2023-01-19T04:27:58.595Z,57.77
2023-01-19T04:30:27.799Z,58.07
2023-01-19T04:32:56.531Z,59.37
2023-01-19T04:35:24.037Z,58.67
2023-01-19T04:37:51.592Z,54.90
2023-01-19T04:40:19.031Z,56.53
2023-01-19T04:42:47.154Z,55.47
2023-01-19T04:45:14.677Z,52.87
2023-01-19T04:47:42.892Z,52.93
2023-01-19T04:50:11.813Z,48.70
2023-01-19T04:52:39.178Z,47.87
2023-01-19T04:55:07.683Z,44.47
2023-01-19T04:57:35.581Z,44.00
2023-01-19T05:00:03.632Z,45.20
2023-01-19T05:02:30.996Z,43.57
2023-01-19T05:04:58.271Z,42.77
2023-01-19T05:07:25.746Z,40.00
2023-01-19T05:09:53.036Z,37.43
2023-01-19T05:12:20.788Z,36.80
2023-01-19T05:14:47.975Z,34.30
2023-01-19T05:17:15.537Z,31.77
2023-01-19T05:19:42.743Z,30.63
2023-01-19T05:22:09.928Z,29.90
2023-01-19T05:24:37.427Z,26.70
2023-01-19T05:27:04.703Z,27.10
2023-01-19T05:29:32.700Z,27.23
2023-01-19T05:31:59.932Z,27.90
2023-01-19T05:34:27.412Z,25.60
2023-01-19T05:36:54.535Z,26.50
2023-01-19T05:39:21.714Z,26.13
2023-01-19T05:41:49.040Z,24.43
2023-01-19T05:44:16.798Z,24.70
2023-01-19T05:46:44.081Z,24.03
2023-01-19T05:49:13.122Z,21.37
2023-01-19T05:51:45.481Z,20.37
2023-01-19T05:54:15.556Z,21.07
2023-01-19T05:56:43.252Z,19.53
2023-01-19T05:59:11.213Z,20.40
2023-01-19T06:01:39.958Z,18.93
2023-01-19T06:04:07.831Z,19.27
2023-01-19T06:06:35.075Z,19.63
2023-01-19T06:09:02.289Z,17.50
2023-01-19T06:11:29.583Z,18.30
2023-01-19T06:13:56.825Z,16.73
2023-01-19T06:16:24.228Z,14.97
2023-01-19T06:18:52.061Z,15.77
2023-01-19T06:21:19.407Z,17.17
2023-01-19T06:23:46.615Z,15.80
2023-01-19T06:26:14.131Z,32.03
2023-01-19T06:28:41.254Z,18.03
2023-01-19T06:31:08.477Z,22.63
2023-01-19T06:33:35.989Z,17.80
2023-01-19T06:36:04.028Z,20.10
2023-01-19T06:38:32.809Z,28.77
2023-01-19T06:41:00.084Z,43.53
2023-01-19T06:43:27.361Z,22.63
2023-01-19T06:45:55.217Z,18.53
2023-01-19T06:48:23.073Z,57.97
2023-01-19T06:50:50.508Z,36.37
2023-01-19T06:53:20.089Z,74.63
2023-01-19T06:55:47.248Z,50.67
2023-01-19T06:58:14.628Z,91.50
2023-01-19T07:00:43.130Z,55.03
2023-01-19T07:03:19.378Z,161.47
2023-01-19T07:05:47.036Z,115.53
2023-01-19T07:08:15.857Z,110.20
2023-01-19T07:11:26.218Z,59.03
2023-01-19T07:13:30.585Z,51.00
2023-01-19T07:15:57.983Z,48.33
2023-01-19T07:18:25.275Z,23.53
2023-01-19T07:20:52.539Z,18.60
2023-01-19T07:23:19.756Z,41.43
2023-01-19T07:25:47.597Z,24.07
2023-01-19T07:28:16.789Z,22.70
2023-01-19T07:30:46.438Z,22.17
2023-01-19T07:33:13.673Z,25.40
2023-01-19T07:35:40.909Z,23.57
2023-01-19T07:38:08.237Z,21.33
2023-01-19T07:40:35.611Z,18.87
2023-01-19T07:43:03.633Z,18.20
2023-01-19T07:45:31.252Z,20.23
2023-01-19T07:47:58.541Z,23.00
2023-01-19T07:50:27.847Z,22.07
2023-01-19T07:52:55.643Z,28.90
2023-01-19T07:55:24.164Z,20.03
2023-01-19T07:57:52.294Z,28.80
2023-01-19T08:00:22.265Z,33.87
2023-01-19T08:02:52.651Z,23.03
2023-01-19T08:05:20.631Z,30.87
2023-01-19T08:07:48.591Z,21.17
2023-01-19T08:10:17.837Z,21.57
2023-01-19T08:12:45.009Z,20.40
2023-01-19T08:15:12.387Z,21.23
2023-01-19T08:17:39.760Z,40.43
2023-01-19T08:20:08.811Z,67.70
2023-01-19T08:22:36.079Z,47.40
2023-01-19T08:25:04.259Z,31.20
2023-01-19T08:27:31.752Z,27.87
2023-01-19T08:29:59.373Z,23.37
2023-01-19T08:32:26.696Z,36.73
2023-01-19T08:34:53.909Z,44.40
2023-01-19T08:37:21.356Z,31.03
2023-01-19T08:39:48.489Z,30.13
2023-01-19T08:42:15.609Z,23.30
2023-01-19T08:44:57.263Z,22.20
2023-01-19T08:47:25.195Z,20.40
2023-01-19T08:49:52.707Z,21.53
2023-01-19T08:52:19.912Z,41.83
2023-01-19T08:54:47.292Z,48.83
2023-01-19T08:57:15.675Z,34.60
2023-01-19T08:59:42.775Z,21.77
2023-01-19T09:02:11.258Z,22.53
2023-01-19T09:04:38.463Z,20.40
2023-01-19T09:09:40.052Z,25.23
2023-01-19T09:12:07.348Z,22.20
2023-01-19T09:14:34.494Z,23.67
2023-01-19T09:17:01.656Z,23.80
2023-01-19T09:19:28.986Z,25.20
2023-01-19T09:21:56.377Z,21.67
2023-01-19T09:24:23.863Z,20.83
2023-01-19T09:26:51.285Z,22.93
2023-01-19T09:29:18.530Z,20.60
2023-01-19T09:31:45.919Z,24.33
2023-01-19T09:34:13.192Z,23.97
2023-01-19T09:36:40.746Z,24.23
2023-01-19T09:39:08.115Z,22.77
2023-01-19T09:41:37.060Z,25.07
2023-01-19T09:44:04.940Z,28.00
2023-01-19T09:46:42.923Z,24.00
2023-01-19T09:49:21.803Z,24.13
2023-01-19T09:51:51.536Z,22.53
2023-01-19T09:54:22.215Z,22.93
2023-01-19T09:56:52.378Z,23.20
2023-01-19T09:59:26.174Z,23.50
2023-01-19T10:01:53.492Z,19.80
2023-01-19T10:04:44.305Z,22.03
2023-01-19T10:07:18.852Z,19.27
2023-01-19T10:10:09.822Z,19.27
2023-01-19T10:12:51.388Z,19.30
2023-01-19T10:15:42.159Z,26.00
2023-01-19T10:18:12.580Z,19.60
2023-01-19T10:20:49.649Z,29.10
2023-01-19T10:23:40.918Z,22.73
2023-01-19T10:26:14.221Z,22.37
2023-01-19T10:28:42.253Z,20.50
2023-01-19T10:31:10.299Z,21.03
2023-01-19T10:33:39.096Z,24.50
2023-01-19T10:36:17.604Z,16.80
2023-01-19T10:38:45.864Z,22.70
2023-01-19T10:41:24.501Z,21.83
2023-01-19T10:44:01.299Z,22.70
2023-01-19T10:46:34.481Z,19.80
2023-01-19T10:49:02.391Z,19.53
2023-01-19T10:51:29.785Z,19.07
2023-01-19T10:54:04.166Z,18.60
2023-01-19T10:56:37.506Z,17.57
2023-01-19T10:59:07.211Z,17.30
2023-01-19T11:01:37.336Z,18.47
2023-01-19T11:04:27.047Z,19.60
2023-01-19T11:07:18.519Z,25.80
2023-01-19T11:09:46.154Z,17.00
2023-01-19T11:12:18.725Z,16.93
2023-01-19T11:14:47.272Z,19.13
2023-01-19T11:17:24.896Z,16.77
2023-01-19T11:20:23.289Z,16.77
2023-01-19T11:23:05.679Z,15.23
2023-01-19T11:25:35.896Z,15.77
2023-01-19T11:28:03.891Z,15.80
2023-01-19T11:30:31.976Z,14.67
2023-01-19T11:32:59.377Z,14.57
2023-01-19T11:35:34.640Z,13.70
2023-01-19T11:38:19.618Z,12.90
2023-01-19T11:40:58.799Z,13.17
2023-01-19T11:43:39.812Z,14.20
2023-01-19T11:46:16.759Z,11.07
2023-01-19T11:48:57.518Z,14.57
2023-01-19T11:51:28.567Z,14.20
2023-01-19T11:53:55.869Z,14.83
2023-01-19T11:56:26.983Z,20.73
2023-01-19T11:58:54.631Z,14.20
2023-01-19T12:01:29.507Z,15.77
2023-01-19T12:04:07.376Z,13.77
2023-01-19T12:06:47.958Z,14.37
2023-01-19T12:09:37.119Z,16.43
2023-01-19T12:12:09.157Z,19.23
2023-01-19T12:14:47.370Z,15.20
2023-01-19T12:17:24.615Z,12.07
2023-01-19T12:19:59.681Z,13.83
2023-01-19T12:22:29.375Z,19.07
2023-01-19T12:25:06.360Z,10.90
2023-01-19T12:27:42.546Z,11.10
2023-01-19T12:30:25.764Z,11.43
2023-01-19T12:33:13.798Z,12.67
2023-01-19T12:36:10.488Z,13.13
2023-01-19T12:38:55.591Z,13.57
2023-01-19T12:41:23.066Z,67.00
2023-01-19T12:44:10.150Z,41.07
2023-01-19T12:46:55.775Z,35.07
2023-01-19T12:49:34.411Z,13.10
2023-01-19T12:52:13.739Z,13.07
2023-01-19T12:54:55.807Z,11.87
2023-01-19T12:58:03.041Z,14.33
2023-01-19T13:00:37.917Z,15.00
2023-01-19T13:03:20.129Z,12.63
2023-01-19T13:05:57.321Z,13.43
2023-01-19T13:08:46.239Z,13.63
2023-01-19T13:11:17.365Z,11.93
2023-01-19T13:13:46.599Z,11.80
2023-01-19T13:16:19.971Z,10.97
2023-01-19T13:18:48.659Z,13.53
2023-01-19T13:21:39.763Z,13.00
2023-01-19T13:24:24.361Z,14.07
2023-01-19T13:26:55.389Z,11.30
2023-01-19T13:29:28.499Z,13.10
2023-01-19T13:32:02.844Z,12.77
2023-01-19T13:34:36.107Z,11.43
2023-01-19T13:37:04.945Z,10.73
2023-01-19T13:39:44.449Z,10.73
2023-01-19T13:42:25.833Z,13.57
2023-01-19T13:44:55.238Z,18.17
2023-01-19T13:47:26.887Z,10.40
2023-01-19T13:49:57.405Z,10.63
2023-01-19T13:52:31.525Z,8.17
2023-01-19T13:55:03.274Z,9.23
2023-01-19T13:57:32.790Z,8.90
2023-01-19T14:00:14.947Z,8.40
2023-01-19T14:03:01.971Z,14.33
2023-01-19T14:05:33.734Z,11.00
2023-01-19T14:08:15.280Z,9.40
2023-01-19T14:11:02.473Z,11.53
2023-01-19T14:13:37.674Z,7.97
2023-01-19T14:16:16.200Z,9.37
2023-01-19T14:18:43.903Z,9.80
2023-01-19T14:21:15.931Z,9.13
2023-01-19T14:23:58.156Z,10.00
2023-01-19T14:26:46.761Z,8.90
2023-01-19T14:29:13.995Z,11.03
2023-01-19T14:31:47.444Z,10.37
2023-01-19T14:34:31.233Z,10.57
2023-01-19T14:36:59.186Z,11.77
2023-01-19T14:39:30.248Z,10.37
2023-01-19T14:42:01.208Z,10.83
2023-01-19T14:44:43.338Z,10.30
2023-01-19T14:47:33.794Z,10.50
2023-01-19T14:50:08.356Z,11.60
2023-01-19T14:52:39.907Z,10.47
2023-01-19T14:55:22.076Z,11.03
2023-01-19T14:57:49.365Z,10.20
2023-01-19T15:00:19.321Z,10.80
2023-01-19T15:02:47.638Z,9.63
2023-01-19T15:05:15.094Z,10.07
2023-01-19T15:07:45.775Z,9.77
2023-01-19T15:10:19.599Z,10.67
2023-01-19T15:12:47.880Z,13.97
2023-01-19T15:15:23.074Z,12.97
2023-01-19T15:17:50.903Z,12.33
2023-01-19T15:20:23.304Z,12.40
2023-01-19T15:22:50.909Z,11.90
2023-01-19T15:25:21.014Z,13.00
2023-01-19T15:27:49.092Z,12.30
2023-01-19T15:30:45.633Z,11.50
2023-01-19T15:33:25.729Z,13.27
2023-01-19T15:35:53.594Z,11.77
2023-01-19T15:38:28.046Z,12.70
2023-01-19T15:40:55.254Z,12.33
2023-01-19T15:43:22.714Z,12.23
2023-01-19T15:46:02.457Z,12.17
2023-01-19T15:48:29.771Z,12.17
2023-01-19T15:50:57.058Z,13.60
2023-01-19T15:53:25.684Z,11.67
2023-01-19T15:55:56.029Z,12.90
2023-01-19T15:58:27.128Z,13.00
2023-01-19T16:00:59.427Z,13.27
2023-01-19T16:03:28.501Z,14.10
2023-01-19T16:05:55.980Z,13.43
2023-01-19T16:08:23.500Z,13.20
2023-01-19T16:10:55.715Z,12.80
2023-01-19T16:13:24.632Z,16.70
2023-01-19T16:15:51.812Z,16.70
2023-01-19T16:18:19.614Z,34.57
2023-01-19T16:20:47.003Z,48.10
2023-01-19T16:23:17.572Z,35.97
2023-01-19T16:25:48.172Z,21.10
2023-01-19T16:28:16.202Z,25.57
2023-01-19T16:30:43.929Z,38.07
2023-01-19T16:33:16.307Z,48.20
2023-01-19T16:35:44.017Z,214.13
2023-01-19T16:38:11.656Z,153.13
2023-01-19T16:40:48.411Z,96.60
2023-01-19T16:43:17.568Z,78.23
2023-01-19T16:46:01.361Z,75.67
2023-01-19T16:48:34.740Z,73.47
2023-01-19T16:51:07.193Z,74.20
2023-01-19T16:53:35.697Z,86.90
2023-01-19T16:56:11.893Z,94.53
2023-01-19T16:58:42.743Z,88.43
2023-01-19T17:01:21.739Z,84.77
2023-01-19T17:03:49.133Z,92.73
2023-01-19T17:06:18.891Z,97.23
2023-01-19T17:08:47.155Z,88.27
2023-01-19T17:11:21.290Z,67.53
2023-01-19T17:13:50.881Z,45.50
2023-01-19T17:16:27.565Z,34.20
2023-01-19T17:18:58.982Z,33.03
2023-01-19T17:21:26.245Z,32.83
2023-01-19T17:23:55.100Z,28.80
2023-01-19T17:26:27.369Z,27.90
2023-01-19T17:29:03.294Z,26.40
2023-01-19T17:31:32.457Z,23.90
2023-01-19T17:34:00.310Z,23.30
2023-01-19T17:36:33.931Z,20.20
2023-01-19T17:39:05.511Z,21.70
2023-01-19T17:41:38.385Z,26.43
2023-01-19T17:44:07.234Z,27.40
2023-01-19T17:46:38.685Z,29.73
2023-01-19T17:49:08.412Z,29.43
2023-01-19T17:51:36.127Z,27.40
2023-01-19T17:54:04.819Z,26.30
2023-01-19T17:56:37.600Z,27.00
2023-01-19T17:59:08.182Z,24.80
2023-01-19T18:01:40.789Z,32.80
2023-01-19T18:04:09.430Z,37.67
2023-01-19T18:06:37.720Z,34.43
2023-01-19T18:09:07.059Z,33.77
2023-01-19T18:11:34.651Z,30.17
2023-01-19T18:14:02.578Z,28.83
2023-01-19T18:16:31.083Z,33.53
2023-01-19T18:18:58.704Z,31.67
2023-01-19T18:21:29.075Z,36.33
2023-01-19T18:24:02.773Z,31.23
2023-01-19T18:26:31.544Z,34.20
2023-01-19T18:28:59.594Z,33.93
2023-01-19T18:31:28.435Z,36.47
2023-01-19T18:33:55.860Z,44.03
2023-01-19T18:36:23.129Z,45.37
2023-01-19T18:38:50.662Z,51.33
2023-01-19T18:41:20.654Z,53.33
2023-01-19T18:43:52.299Z,64.70
2023-01-19T18:46:21.409Z,65.80
2023-01-19T18:48:48.601Z,71.93
2023-01-19T18:51:16.489Z,98.97
2023-01-19T18:53:45.121Z,114.53
2023-01-19T18:56:14.012Z,82.67
2023-01-19T18:58:41.604Z,70.83
2023-01-19T19:01:29.171Z,66.83
2023-01-19T19:03:58.045Z,80.80
2023-01-19T19:06:27.875Z,127.03
2023-01-19T19:08:57.647Z,158.87
2023-01-19T19:11:26.679Z,154.40
2023-01-19T19:13:58.984Z,82.47
2023-01-19T19:16:26.456Z,72.97
2023-01-19T19:18:53.706Z,54.03
2023-01-19T19:21:22.749Z,44.80
2023-01-19T19:23:56.219Z,36.17
2023-01-19T19:26:24.997Z,32.17
2023-01-19T19:28:52.302Z,35.33
2023-01-19T19:31:22.531Z,34.57
2023-01-19T19:33:51.451Z,43.73
2023-01-19T19:36:20.311Z,39.30
2023-01-19T19:38:48.892Z,38.23
2023-01-19T19:41:22.453Z,37.73
2023-01-19T19:43:50.233Z,37.03
2023-01-19T19:46:23.132Z,36.43
2023-01-19T19:48:51.173Z,36.10
2023-01-19T19:51:24.443Z,36.23
2023-01-19T19:53:53.295Z,36.33
2023-01-19T19:56:22.544Z,36.27
2023-01-19T19:58:50.705Z,37.57
2023-01-19T20:01:26.075Z,38.00
2023-01-19T20:03:54.554Z,36.43
2023-01-19T20:06:24.318Z,35.03
2023-01-19T20:08:54.093Z,35.93
2023-01-19T20:11:27.788Z,36.80
2023-01-19T20:13:55.478Z,35.33
2023-01-19T20:16:24.091Z,35.03
2023-01-19T20:18:54.380Z,35.27
2023-01-19T20:21:29.558Z,34.17
2023-01-19T20:24:00.141Z,34.93
2023-01-19T20:26:30.585Z,37.23
2023-01-19T20:29:00.169Z,36.47
2023-01-19T20:31:31.459Z,37.00
2023-01-19T20:34:01.306Z,33.63
2023-01-19T20:36:29.471Z,35.23
2023-01-19T20:38:57.831Z,36.23
2023-01-19T20:41:26.115Z,35.80
2023-01-19T20:43:53.477Z,36.97
2023-01-19T20:46:20.709Z,55.37
2023-01-19T20:48:53.099Z,75.10
2023-01-19T20:51:20.623Z,66.53
2023-01-19T20:53:48.417Z,60.83
2023-01-19T20:56:16.524Z,61.67
2023-01-19T20:58:43.935Z,69.77
2023-01-19T21:01:20.271Z,64.63
2023-01-19T21:03:48.608Z,72.17
2023-01-19T21:06:16.021Z,83.93
2023-01-19T21:08:43.696Z,90.30
2023-01-19T21:11:11.021Z,91.03
2023-01-19T21:13:38.938Z,71.23
2023-01-19T21:16:06.718Z,74.13
2023-01-19T21:18:33.910Z,85.37
2023-01-19T21:21:01.075Z,84.40
2023-01-19T21:23:29.062Z,78.90
2023-01-19T21:25:58.902Z,72.40
2023-01-19T21:28:27.294Z,79.17
2023-01-19T21:30:55.615Z,80.07
2023-01-19T21:33:23.642Z,75.30
2023-01-19T21:35:52.442Z,62.33
2023-01-19T21:38:19.875Z,55.40
2023-01-19T21:40:47.439Z,49.77
2023-01-19T21:43:14.763Z,49.07
2023-01-19T21:45:43.163Z,44.63
2023-01-19T21:48:11.127Z,46.27
2023-01-19T21:50:39.233Z,40.50
2023-01-19T21:53:09.644Z,44.43
2023-01-19T21:55:37.933Z,51.20
2023-01-19T21:58:05.777Z,49.43
2023-01-19T22:00:33.037Z,51.80
2023-01-19T22:03:04.287Z,55.10
2023-01-19T22:05:36.701Z,55.50
2023-01-19T22:08:04.956Z,56.60
2023-01-19T22:10:32.154Z,78.67
2023-01-19T22:12:59.378Z,77.10
2023-01-19T22:15:26.709Z,69.73
2023-01-19T22:17:53.842Z,71.63
2023-01-19T22:20:21.045Z,73.50
2023-01-19T22:22:48.653Z,71.33
2023-01-19T22:25:15.921Z,68.47
2023-01-19T22:27:43.102Z,68.33
2023-01-19T22:30:10.714Z,72.90
2023-01-19T22:32:37.904Z,71.40
2023-01-19T22:35:05.553Z,65.10
2023-01-19T22:37:36.670Z,88.07
2023-01-19T22:40:05.173Z,83.70
2023-01-19T22:42:32.735Z,66.73
2023-01-19T22:44:59.894Z,48.63
2023-01-19T22:47:27.028Z,38.73
2023-01-19T22:49:54.213Z,41.23
2023-01-19T22:52:21.366Z,36.27
2023-01-19T22:54:48.518Z,37.57
2023-01-19T22:57:15.636Z,41.20
2023-01-19T22:59:43.872Z,42.90
2023-01-19T23:02:12.566Z,39.43
2023-01-19T23:04:39.843Z,36.67
2023-01-19T23:07:09.598Z,37.77
2023-01-19T23:09:38.414Z,38.20
2023-01-19T23:12:05.771Z,45.60
2023-01-19T23:14:33.150Z,53.67
2023-01-19T23:17:00.367Z,82.70
2023-01-19T23:19:27.529Z,95.23
2023-01-19T23:21:55.314Z,94.97
2023-01-19T23:24:22.421Z,99.00
2023-01-19T23:26:50.735Z,97.40
2023-01-19T23:29:18.400Z,89.43
2023-01-19T23:31:51.144Z,63.47
2023-01-19T23:34:18.450Z,56.43
2023-01-19T23:36:45.954Z,55.60
2023-01-19T23:39:16.241Z,56.50
2023-01-19T23:41:43.459Z,53.73
2023-01-19T23:44:10.639Z,52.00
2023-01-19T23:46:38.079Z,43.20
2023-01-19T23:49:05.465Z,76.27
2023-01-19T23:51:33.548Z,41.13
2023-01-19T23:54:01.271Z,39.17
2023-01-19T23:56:34.437Z,39.27
2023-01-19T23:59:04.968Z,40.87
